createdAt,value
2023-05-04T00:00:46.378Z,6.50
2023-05-04T00:01:47.935Z,6.80
2023-05-04T00:02:49.438Z,7.10
2023-05-04T00:03:51.402Z,7.15
2023-05-04T00:04:53.550Z,6.47
2023-05-04T00:05:55.170Z,6.68
2023-05-04T00:06:56.675Z,7.03
2023-05-04T00:07:58.199Z,6.63
2023-05-04T00:08:59.701Z,6.40
2023-05-04T00:10:01.265Z,6.15
2023-05-04T00:11:05.186Z,6.72
2023-05-04T00:12:07.924Z,6.35
2023-05-04T00:13:09.754Z,6.38
2023-05-04T00:14:11.446Z,6.85
2023-05-04T00:15:13.002Z,6.28
2023-05-04T00:16:14.551Z,6.65
2023-05-04T00:17:16.182Z,7.22
2023-05-04T00:18:17.761Z,6.90
2023-05-04T00:19:19.573Z,6.75
2023-05-04T00:20:21.613Z,6.70
2023-05-04T00:21:23.147Z,7.03
2023-05-04T00:22:24.686Z,6.57
2023-05-04T00:23:26.299Z,7.00
2023-05-04T00:24:28.533Z,7.38
2023-05-04T00:25:30.212Z,7.28
2023-05-04T00:26:31.753Z,7.22
2023-05-04T00:27:33.223Z,7.43
2023-05-04T00:28:34.686Z,7.28
2023-05-04T00:29:36.298Z,6.90
2023-05-04T00:30:37.922Z,6.70
2023-05-04T00:31:39.588Z,7.93
2023-05-04T00:32:41.169Z,7.63
2023-05-04T00:33:42.834Z,7.00
2023-05-04T00:34:44.265Z,7.05
2023-05-04T00:35:45.773Z,6.75
2023-05-04T00:36:47.360Z,6.70
2023-05-04T00:37:48.820Z,6.70
2023-05-04T00:38:52.026Z,7.05
2023-05-04T00:39:53.526Z,6.03
2023-05-04T00:40:55.031Z,6.65
2023-05-04T00:41:56.568Z,7.43
2023-05-04T00:42:58.060Z,6.85
2023-05-04T00:44:04.245Z,7.30
2023-05-04T00:45:06.358Z,6.70
2023-05-04T00:46:09.093Z,6.55
2023-05-04T00:47:12.624Z,7.18
2023-05-04T00:48:14.239Z,8.10
2023-05-04T00:49:15.955Z,7.85
2023-05-04T00:50:17.591Z,6.82
2023-05-04T00:51:21.543Z,6.70
2023-05-04T00:52:24.245Z,6.57
2023-05-04T00:53:25.888Z,7.00
2023-05-04T00:54:27.828Z,7.47
2023-05-04T00:55:29.476Z,8.07
2023-05-04T00:56:31.208Z,7.05
2023-05-04T00:57:32.741Z,7.60
2023-05-04T00:58:35.459Z,6.70
2023-05-04T00:59:36.973Z,6.38
2023-05-04T01:00:38.629Z,7.10
2023-05-04T01:01:41.390Z,7.32
2023-05-04T01:02:43.144Z,6.47
2023-05-04T01:03:44.724Z,6.75
2023-05-04T01:04:46.796Z,6.43
2023-05-04T01:06:26.438Z,6.22
2023-05-04T01:08:07.716Z,5.97
2023-05-04T01:09:17.395Z,7.00
2023-05-04T01:10:30.234Z,6.55
2023-05-04T01:11:40.120Z,6.50
2023-05-04T01:12:49.216Z,6.28
2023-05-04T01:13:51.464Z,6.40
2023-05-04T01:14:56.158Z,6.38
2023-05-04T01:15:57.780Z,6.78
2023-05-04T01:17:04.392Z,7.10
2023-05-04T01:18:06.608Z,6.60
2023-05-04T01:19:08.182Z,6.80
2023-05-04T01:20:10.536Z,6.38
2023-05-04T01:21:12.167Z,7.00
2023-05-04T01:22:13.661Z,6.70
2023-05-04T01:23:15.363Z,6.43
2023-05-04T01:24:17.209Z,6.93
2023-05-04T01:25:19.011Z,6.13
2023-05-04T01:26:27.483Z,6.05
2023-05-04T01:27:49.969Z,6.15
2023-05-04T01:29:04.974Z,5.97
2023-05-04T01:30:14.780Z,5.78
2023-05-04T01:31:22.714Z,6.38
2023-05-04T01:32:27.434Z,6.55
2023-05-04T01:33:29.288Z,6.53
2023-05-04T01:34:30.879Z,6.17
2023-05-04T01:35:32.585Z,6.55
2023-05-04T01:36:34.488Z,6.28
2023-05-04T01:37:36.522Z,6.88
2023-05-04T01:38:38.089Z,6.35
2023-05-04T01:39:41.279Z,6.60
2023-05-04T01:40:42.773Z,6.03
2023-05-04T01:41:44.325Z,6.30
2023-05-04T01:42:45.840Z,5.97
2023-05-04T01:43:47.368Z,5.90
2023-05-04T01:44:49.318Z,6.23
2023-05-04T01:45:52.228Z,6.03
2023-05-04T01:46:54.027Z,6.38
2023-05-04T01:47:57.251Z,6.07
2023-05-04T01:48:58.963Z,6.22
2023-05-04T01:50:00.665Z,6.32
2023-05-04T01:51:02.336Z,6.38
2023-05-04T01:52:05.296Z,6.18
2023-05-04T01:53:07.093Z,6.22
2023-05-04T01:54:08.657Z,6.28
2023-05-04T01:55:10.280Z,6.80
2023-05-04T01:56:11.852Z,6.40
2023-05-04T01:57:14.041Z,6.40
2023-05-04T01:58:18.338Z,6.40
2023-05-04T01:59:19.905Z,6.15
2023-05-04T02:00:21.468Z,6.47
2023-05-04T02:01:22.998Z,6.72
2023-05-04T02:02:25.068Z,6.43
2023-05-04T02:03:26.829Z,6.32
2023-05-04T02:04:28.498Z,5.95
2023-05-04T02:05:30.044Z,7.13
2023-05-04T02:06:31.571Z,6.75
2023-05-04T02:07:33.036Z,6.57
2023-05-04T02:08:34.521Z,6.88
2023-05-04T02:09:36.738Z,6.30
2023-05-04T02:10:38.249Z,6.85
2023-05-04T02:11:39.689Z,6.00
2023-05-04T02:12:43.037Z,6.82
2023-05-04T02:13:44.670Z,6.95
2023-05-04T02:14:46.754Z,6.35
2023-05-04T02:15:48.365Z,6.30
2023-05-04T02:16:51.331Z,6.15
2023-05-04T02:17:52.835Z,6.43
2023-05-04T02:18:54.381Z,6.40
2023-05-04T02:19:55.890Z,6.18
2023-05-04T02:20:57.528Z,6.72
2023-05-04T02:21:59.035Z,6.30
2023-05-04T02:23:00.958Z,6.40
2023-05-04T02:24:04.820Z,6.43
2023-05-04T02:25:07.527Z,6.20
2023-05-04T02:26:09.076Z,6.82
2023-05-04T02:27:10.794Z,7.57
2023-05-04T02:28:12.319Z,7.28
2023-05-04T02:29:13.829Z,7.05
2023-05-04T02:30:15.382Z,7.05
2023-05-04T02:31:17.051Z,6.47
2023-05-04T02:32:18.591Z,6.78
2023-05-04T02:33:20.135Z,6.68
2023-05-04T02:34:22.994Z,6.40
2023-05-04T02:35:24.544Z,5.57
2023-05-04T02:36:26.128Z,5.57
2023-05-04T02:37:27.621Z,6.30
2023-05-04T02:38:29.191Z,6.10
2023-05-04T02:39:30.620Z,5.68
2023-05-04T02:40:32.511Z,6.57
2023-05-04T02:41:34.012Z,5.88
2023-05-04T02:42:35.519Z,6.70
2023-05-04T02:43:37.046Z,6.37
2023-05-04T02:44:38.490Z,6.28
2023-05-04T02:45:40.528Z,7.10
2023-05-04T02:46:42.155Z,6.28
2023-05-04T02:47:43.960Z,6.65
2023-05-04T02:48:46.044Z,6.60
2023-05-04T02:49:47.540Z,6.65
2023-05-04T02:50:49.040Z,6.60
2023-05-04T02:51:50.759Z,7.00
2023-05-04T02:52:52.444Z,7.05
2023-05-04T02:53:54.243Z,7.07
2023-05-04T02:54:56.695Z,7.75
2023-05-04T02:55:58.142Z,7.22
2023-05-04T02:56:59.660Z,7.95
2023-05-04T02:58:01.295Z,8.02
2023-05-04T02:59:02.760Z,7.30
2023-05-04T03:00:07.136Z,7.63
2023-05-04T03:01:09.003Z,7.63
2023-05-04T03:02:11.316Z,7.93
2023-05-04T03:03:12.840Z,8.00
2023-05-04T03:04:14.401Z,7.78
2023-05-04T03:05:15.904Z,7.40
2023-05-04T03:06:17.379Z,7.70
2023-05-04T03:07:18.913Z,7.13
2023-05-04T03:08:20.851Z,7.38
2023-05-04T03:09:22.353Z,8.35
2023-05-04T03:10:23.878Z,8.05
2023-05-04T03:11:25.818Z,7.43
2023-05-04T03:12:27.475Z,8.30
2023-05-04T03:13:28.976Z,7.60
2023-05-04T03:14:31.430Z,7.90
2023-05-04T03:15:33.414Z,7.93
2023-05-04T03:16:35.371Z,7.70
2023-05-04T03:17:37.465Z,8.40
2023-05-04T03:19:58.627Z,7.82
2023-05-04T03:21:02.141Z,8.32
2023-05-04T03:22:04.642Z,7.85
2023-05-04T03:23:06.243Z,7.97
2023-05-04T03:24:07.742Z,8.00
2023-05-04T03:25:09.516Z,7.60
2023-05-04T03:26:11.193Z,7.80
2023-05-04T03:27:12.925Z,8.55
2023-05-04T03:28:14.780Z,8.23
2023-05-04T03:29:16.969Z,8.23
2023-05-04T03:30:18.718Z,8.05
2023-05-04T03:31:21.703Z,7.43
2023-05-04T03:32:26.533Z,7.30
2023-05-04T03:33:28.176Z,7.70
2023-05-04T03:34:31.721Z,6.70
2023-05-04T03:35:37.046Z,7.07
2023-05-04T03:36:38.890Z,7.22
2023-05-04T03:37:40.655Z,7.88
2023-05-04T03:38:42.225Z,7.35
2023-05-04T03:39:43.754Z,8.00
2023-05-04T03:40:45.246Z,7.97
2023-05-04T03:41:49.797Z,8.18
2023-05-04T03:42:53.941Z,8.20
2023-05-04T03:43:56.840Z,8.93
2023-05-04T03:44:58.387Z,8.90
2023-05-04T03:46:00.298Z,8.63
2023-05-04T03:47:01.766Z,8.82
2023-05-04T03:48:05.316Z,9.30
2023-05-04T03:49:06.980Z,9.23
2023-05-04T03:50:09.672Z,9.70
2023-05-04T03:51:11.443Z,9.63
2023-05-04T03:52:13.013Z,9.45
2023-05-04T03:53:14.476Z,8.63
2023-05-04T03:54:16.861Z,9.00
2023-05-04T03:55:18.437Z,9.30
2023-05-04T03:56:24.073Z,8.88
2023-05-04T03:57:25.658Z,9.20
2023-05-04T03:58:29.545Z,9.55
2023-05-04T03:59:33.939Z,9.30
2023-05-04T04:00:38.618Z,8.93
2023-05-04T04:01:46.076Z,9.23
2023-05-04T04:02:47.718Z,9.70
2023-05-04T04:03:53.588Z,9.25
2023-05-04T04:04:55.690Z,9.48
2023-05-04T04:05:57.502Z,9.82
2023-05-04T04:07:01.028Z,9.77
2023-05-04T04:08:05.363Z,10.55
2023-05-04T04:09:07.823Z,10.02
2023-05-04T04:10:10.054Z,9.98
2023-05-04T04:11:11.525Z,10.57
2023-05-04T04:12:13.089Z,10.40
2023-05-04T04:13:14.635Z,9.70
2023-05-04T04:14:16.152Z,9.50
2023-05-04T04:15:17.739Z,9.48
2023-05-04T04:16:21.190Z,9.23
2023-05-04T04:17:22.736Z,8.75
2023-05-04T04:18:24.648Z,9.50
2023-05-04T04:19:26.799Z,8.75
2023-05-04T04:20:28.442Z,9.05
2023-05-04T04:21:30.140Z,9.20
2023-05-04T04:22:31.637Z,9.27
2023-05-04T04:23:33.117Z,9.07
2023-05-04T04:24:34.596Z,9.07
2023-05-04T04:25:36.558Z,9.43
2023-05-04T04:26:38.136Z,10.27
2023-05-04T04:27:39.658Z,9.88
2023-05-04T04:28:41.192Z,10.70
2023-05-04T04:29:42.916Z,12.85
2023-05-04T04:30:44.807Z,12.48
2023-05-04T04:31:46.630Z,11.52
2023-05-04T04:32:49.486Z,12.02
2023-05-04T04:33:51.334Z,12.23
2023-05-04T04:34:52.886Z,12.15
2023-05-04T04:35:54.373Z,11.73
2023-05-04T04:36:55.843Z,11.60
2023-05-04T04:37:57.344Z,11.65
2023-05-04T04:38:59.052Z,11.25
2023-05-04T04:40:01.429Z,11.00
2023-05-04T04:41:03.155Z,11.70
2023-05-04T04:42:04.602Z,11.70
2023-05-04T04:43:06.056Z,11.73
2023-05-04T04:44:07.526Z,11.15
2023-05-04T04:45:09.458Z,11.48
2023-05-04T04:46:11.178Z,11.80
2023-05-04T04:47:13.113Z,12.18
2023-05-04T04:48:14.606Z,11.50
2023-05-04T04:49:17.835Z,11.38
2023-05-04T04:50:19.462Z,11.80
2023-05-04T04:51:21.611Z,10.65
2023-05-04T04:52:23.731Z,11.88
2023-05-04T04:53:25.244Z,11.30
2023-05-04T04:54:27.221Z,12.23
2023-05-04T04:55:28.761Z,10.95
2023-05-04T04:56:30.223Z,11.88
2023-05-04T04:57:32.023Z,11.30
2023-05-04T04:58:33.880Z,11.73
2023-05-04T04:59:35.369Z,12.02
2023-05-04T05:00:37.339Z,10.45
2023-05-04T05:01:38.809Z,10.43
2023-05-04T05:02:40.349Z,9.60
2023-05-04T05:03:41.993Z,9.13
2023-05-04T05:04:43.608Z,9.80
2023-05-04T05:05:45.214Z,9.40
2023-05-04T05:06:47.707Z,9.48
2023-05-04T05:07:49.174Z,10.18
2023-05-04T05:08:51.491Z,9.65
2023-05-04T05:09:53.019Z,8.45
2023-05-04T05:10:54.615Z,9.13
2023-05-04T05:11:56.500Z,8.97
2023-05-04T05:12:58.079Z,8.77
2023-05-04T05:13:59.897Z,9.05
2023-05-04T05:15:03.169Z,9.02
2023-05-04T05:16:05.028Z,9.75
2023-05-04T05:17:06.823Z,10.13
2023-05-04T05:18:08.330Z,8.82
2023-05-04T05:19:09.857Z,9.15
2023-05-04T05:20:11.791Z,8.68
2023-05-04T05:21:14.026Z,10.75
2023-05-04T05:22:15.924Z,9.52
2023-05-04T05:23:17.485Z,10.70
2023-05-04T05:24:18.984Z,10.07
2023-05-04T05:25:20.706Z,10.38
2023-05-04T05:26:22.254Z,9.45
2023-05-04T05:27:23.778Z,9.50
2023-05-04T05:28:25.500Z,9.82
2023-05-04T05:29:27.196Z,8.85
2023-05-04T05:30:28.778Z,8.90
2023-05-04T05:31:30.535Z,8.35
2023-05-04T05:32:32.301Z,9.00
2023-05-04T05:33:33.875Z,9.40
2023-05-04T05:34:38.820Z,8.73
2023-05-04T05:35:40.283Z,8.95
2023-05-04T05:36:41.984Z,9.85
2023-05-04T05:37:43.466Z,9.20
2023-05-04T05:38:45.051Z,9.10
2023-05-04T05:39:46.522Z,8.23
2023-05-04T05:40:49.131Z,9.70
2023-05-04T05:41:50.656Z,9.07
2023-05-04T05:42:52.287Z,9.15
2023-05-04T05:43:53.897Z,8.95
2023-05-04T05:44:55.396Z,8.55
2023-05-04T05:45:57.422Z,7.40
2023-05-04T05:46:59.063Z,9.07
2023-05-04T05:48:00.748Z,8.88
2023-05-04T05:49:02.427Z,7.67
2023-05-04T05:50:04.748Z,7.85
2023-05-04T05:51:06.435Z,8.57
2023-05-04T05:52:08.038Z,8.70
2023-05-04T05:53:09.546Z,8.43
2023-05-04T05:54:11.204Z,8.32
2023-05-04T05:55:12.734Z,7.70
2023-05-04T05:56:14.862Z,8.60
2023-05-04T05:57:16.377Z,8.90
2023-05-04T05:58:17.940Z,8.00
2023-05-04T05:59:19.476Z,8.65
2023-05-04T06:00:21.353Z,8.15
2023-05-04T06:01:23.043Z,8.05
2023-05-04T06:02:24.614Z,8.18
2023-05-04T06:03:26.430Z,7.68
2023-05-04T06:04:28.102Z,8.23
2023-05-04T06:05:29.646Z,7.82
2023-05-04T06:06:31.098Z,7.50
2023-05-04T06:07:32.899Z,8.25
2023-05-04T06:08:34.505Z,8.38
2023-05-04T06:09:36.570Z,7.95
2023-05-04T06:10:38.279Z,8.88
2023-05-04T06:11:40.018Z,9.35
2023-05-04T06:12:41.593Z,8.55
2023-05-04T06:13:43.368Z,9.32
2023-05-04T06:14:44.946Z,8.65
2023-05-04T06:15:53.453Z,9.07
2023-05-04T06:16:55.243Z,8.82
2023-05-04T06:17:56.858Z,8.07
2023-05-04T06:18:59.224Z,8.27
2023-05-04T06:20:01.102Z,9.30
2023-05-04T06:21:02.732Z,9.25
2023-05-04T06:22:04.453Z,8.65
2023-05-04T06:23:06.122Z,8.98
2023-05-04T06:24:07.635Z,9.10
2023-05-04T06:25:09.357Z,8.85
2023-05-04T06:26:10.983Z,9.38
2023-05-04T06:27:12.633Z,9.48
2023-05-04T06:28:14.211Z,8.45
2023-05-04T06:29:15.700Z,8.63
2023-05-04T06:30:17.838Z,8.40
2023-05-04T06:31:19.368Z,9.18
2023-05-04T06:32:21.149Z,9.80
2023-05-04T06:33:22.949Z,9.50
2023-05-04T06:34:24.407Z,9.13
2023-05-04T06:35:26.188Z,9.80
2023-05-04T06:36:27.643Z,9.93
2023-05-04T06:37:29.115Z,10.10
2023-05-04T06:38:30.593Z,9.60
2023-05-04T06:39:32.151Z,9.60
2023-05-04T06:40:33.946Z,9.38
2023-05-04T06:41:35.977Z,10.02
2023-05-04T06:42:37.619Z,9.00
2023-05-04T06:43:42.074Z,9.60
2023-05-04T06:44:43.639Z,8.43
2023-05-04T06:45:45.465Z,10.27
2023-05-04T06:46:47.194Z,8.93
2023-05-04T06:47:48.805Z,9.68
2023-05-04T06:48:50.353Z,8.63
2023-05-04T06:49:51.920Z,8.60
2023-05-04T06:50:53.719Z,8.65
2023-05-04T06:51:55.319Z,8.95
2023-05-04T06:53:05.654Z,9.25
2023-05-04T06:54:07.418Z,8.40
2023-05-04T06:55:09.235Z,8.63
2023-05-04T06:56:11.079Z,8.05
2023-05-04T06:57:12.694Z,8.77
2023-05-04T06:58:16.993Z,8.15
2023-05-04T06:59:20.266Z,7.82
2023-05-04T07:00:22.589Z,7.95
2023-05-04T07:01:24.367Z,7.90
2023-05-04T07:02:26.137Z,8.55
2023-05-04T07:03:27.931Z,8.03
2023-05-04T07:04:29.447Z,7.97
2023-05-04T07:05:35.581Z,8.18
2023-05-04T07:06:37.227Z,8.35
2023-05-04T07:07:38.834Z,7.95
2023-05-04T07:08:40.679Z,8.07
2023-05-04T07:09:43.949Z,8.45
2023-05-04T07:10:46.059Z,7.82
2023-05-04T07:11:48.521Z,7.50
2023-05-04T07:12:50.174Z,8.43
2023-05-04T07:13:51.647Z,7.97
2023-05-04T07:14:53.181Z,8.02
2023-05-04T07:15:54.745Z,8.35
2023-05-04T07:16:56.264Z,7.47
2023-05-04T07:17:57.774Z,7.63
2023-05-04T07:18:59.260Z,7.72
2023-05-04T07:20:03.351Z,8.20
2023-05-04T07:21:22.525Z,7.50
2023-05-04T07:22:29.744Z,7.68
2023-05-04T07:23:31.268Z,8.00
2023-05-04T07:24:33.054Z,7.25
2023-05-04T07:25:35.192Z,7.15
2023-05-04T07:26:36.741Z,7.10
2023-05-04T07:27:38.358Z,7.72
2023-05-04T07:28:43.602Z,7.85
2023-05-04T07:29:45.249Z,7.18
2023-05-04T07:30:46.814Z,7.10
2023-05-04T07:31:48.362Z,6.97
2023-05-04T07:32:49.903Z,7.28
2023-05-04T07:33:51.435Z,7.13
2023-05-04T07:34:52.876Z,6.68
2023-05-04T07:35:58.650Z,6.53
2023-05-04T07:37:00.174Z,6.10
2023-05-04T07:38:02.679Z,6.18
2023-05-04T07:39:04.271Z,5.70
2023-05-04T07:40:07.664Z,5.97
2023-05-04T07:41:10.291Z,5.65
2023-05-04T07:42:11.986Z,6.85
2023-05-04T07:43:13.548Z,5.75
2023-05-04T07:44:15.032Z,5.70
2023-05-04T07:45:16.923Z,5.85
2023-05-04T07:46:18.648Z,5.28
2023-05-04T07:47:20.205Z,5.57
2023-05-04T07:48:22.390Z,6.30
2023-05-04T07:49:25.537Z,5.50
2023-05-04T07:50:27.087Z,5.18
2023-05-04T07:51:28.630Z,5.72
2023-05-04T07:52:30.378Z,5.57
2023-05-04T07:53:31.988Z,5.88
2023-05-04T07:54:33.542Z,5.93
2023-05-04T07:55:35.391Z,5.72
2023-05-04T07:56:36.872Z,5.47
2023-05-04T07:57:38.303Z,5.60
2023-05-04T07:58:40.108Z,6.07
2023-05-04T07:59:41.583Z,6.60
2023-05-04T08:00:43.263Z,5.50
2023-05-04T08:01:44.916Z,5.00
2023-05-04T08:02:46.658Z,5.03
2023-05-04T08:03:48.739Z,5.20
2023-05-04T08:04:50.302Z,5.20
2023-05-04T08:05:52.018Z,4.53
2023-05-04T08:06:53.614Z,4.88
2023-05-04T08:07:55.223Z,4.45
2023-05-04T08:08:56.828Z,4.97
2023-05-04T08:09:58.627Z,4.87
2023-05-04T08:11:15.782Z,4.22
2023-05-04T08:12:21.289Z,4.50
2023-05-04T08:13:22.802Z,4.57
2023-05-04T08:14:24.341Z,4.90
2023-05-04T08:15:26.123Z,4.38
2023-05-04T08:16:29.199Z,4.80
2023-05-04T08:17:30.942Z,4.55
2023-05-04T08:18:32.431Z,3.90
2023-05-04T08:19:33.952Z,4.30
2023-05-04T08:20:35.493Z,4.80
2023-05-04T08:21:37.072Z,4.60
2023-05-04T08:22:39.070Z,4.32
2023-05-04T08:23:40.974Z,4.45
2023-05-04T08:24:42.490Z,4.60
2023-05-04T08:25:44.001Z,4.47
2023-05-04T08:26:52.374Z,4.20
2023-05-04T08:28:01.562Z,4.43
2023-05-04T08:29:07.585Z,4.45
2023-05-04T08:30:10.127Z,4.50
2023-05-04T08:31:15.096Z,4.65
2023-05-04T08:32:17.452Z,4.47
2023-05-04T08:33:18.944Z,4.45
2023-05-04T08:34:20.454Z,4.25
2023-05-04T08:35:25.915Z,4.57
2023-05-04T08:36:27.654Z,4.88
2023-05-04T08:37:29.164Z,4.30
2023-05-04T08:38:30.871Z,4.40
2023-05-04T08:39:32.442Z,5.00
2023-05-04T08:40:34.375Z,3.95
2023-05-04T08:41:40.255Z,4.50
2023-05-04T08:42:44.565Z,4.05
2023-05-04T08:43:46.736Z,4.70
2023-05-04T08:44:48.353Z,4.10
2023-05-04T08:45:50.978Z,4.10
2023-05-04T08:46:53.648Z,4.57
2023-05-04T08:47:55.734Z,4.35
2023-05-04T08:48:58.137Z,4.25
2023-05-04T08:49:59.610Z,4.43
2023-05-04T08:51:02.848Z,4.20
2023-05-04T08:52:07.746Z,4.03
2023-05-04T08:53:13.220Z,4.22
2023-05-04T08:54:16.213Z,4.60
2023-05-04T08:55:18.649Z,4.07
2023-05-04T08:56:22.790Z,4.30
2023-05-04T08:57:25.305Z,3.65
2023-05-04T08:58:27.834Z,3.75
2023-05-04T08:59:31.814Z,4.00
2023-05-04T09:00:33.903Z,3.72
2023-05-04T09:01:38.339Z,4.43
2023-05-04T09:02:40.324Z,3.92
2023-05-04T09:03:43.670Z,4.05
2023-05-04T09:04:45.598Z,4.13
2023-05-04T09:05:47.565Z,4.38
2023-05-04T09:06:49.422Z,3.95
2023-05-04T09:07:52.761Z,4.00
2023-05-04T09:08:54.265Z,3.88
2023-05-04T09:09:57.048Z,3.78
2023-05-04T09:10:59.127Z,3.50
2023-05-04T09:12:00.642Z,4.38
2023-05-04T09:13:02.459Z,4.00
2023-05-04T09:14:04.166Z,3.80
2023-05-04T09:15:17.514Z,3.58
2023-05-04T09:16:20.013Z,4.05
2023-05-04T09:17:25.793Z,3.85
2023-05-04T09:18:39.149Z,3.90
2023-05-04T09:19:43.899Z,4.13
2023-05-04T09:20:47.215Z,3.90
2023-05-04T09:21:51.134Z,3.90
2023-05-04T09:23:03.720Z,3.70
2023-05-04T09:24:05.509Z,3.55
2023-05-04T09:25:07.440Z,3.58
2023-05-04T09:26:09.355Z,3.75
2023-05-04T09:27:16.247Z,3.50
2023-05-04T09:28:19.407Z,3.60
2023-05-04T09:29:22.331Z,3.53
2023-05-04T09:30:24.045Z,3.35
2023-05-04T09:31:26.419Z,3.95
2023-05-04T09:32:28.584Z,3.65
2023-05-04T09:33:30.564Z,3.53
2023-05-04T09:34:33.575Z,3.80
2023-05-04T09:35:35.157Z,4.03
2023-05-04T09:36:37.760Z,3.65
2023-05-04T09:37:48.935Z,3.40
2023-05-04T09:38:50.445Z,3.80
2023-05-04T09:39:58.092Z,3.72
2023-05-04T09:40:59.573Z,3.67
2023-05-04T09:42:01.917Z,3.22
2023-05-04T09:43:03.858Z,3.53
2023-05-04T09:44:05.478Z,3.85
2023-05-04T09:45:08.863Z,3.60
2023-05-04T09:46:18.433Z,3.67
2023-05-04T09:47:20.263Z,4.03
2023-05-04T09:48:28.953Z,3.53
2023-05-04T09:49:32.699Z,3.60
2023-05-04T09:50:35.478Z,3.80
2023-05-04T09:51:37.509Z,3.58
2023-05-04T09:52:41.633Z,3.72
2023-05-04T09:53:43.602Z,3.33
2023-05-04T09:54:45.951Z,4.00
2023-05-04T09:55:51.047Z,4.13
2023-05-04T09:56:58.650Z,3.83
2023-05-04T09:58:01.107Z,3.70
2023-05-04T09:59:05.281Z,3.63
2023-05-04T10:00:08.391Z,4.00
2023-05-04T10:01:10.391Z,3.47
2023-05-04T10:02:21.787Z,3.80
2023-05-04T10:03:26.418Z,3.65
2023-05-04T10:04:28.053Z,3.30
2023-05-04T10:05:30.095Z,3.65
2023-05-04T10:06:32.980Z,3.30
2023-05-04T10:07:34.792Z,3.47
2023-05-04T10:08:37.359Z,3.20
2023-05-04T10:09:39.430Z,3.30
2023-05-04T10:10:41.375Z,3.08
2023-05-04T10:11:44.143Z,3.42
2023-05-04T10:12:46.011Z,3.28
2023-05-04T10:13:50.845Z,3.47
2023-05-04T10:14:53.469Z,3.50
2023-05-04T10:16:07.558Z,3.25
2023-05-04T10:17:38.583Z,3.05
2023-05-04T10:18:48.784Z,3.28
2023-05-04T10:19:59.119Z,4.15
2023-05-04T10:21:16.247Z,3.90
2023-05-04T10:22:35.233Z,3.67
2023-05-04T10:23:54.973Z,3.55
2023-05-04T10:25:33.551Z,3.20
2023-05-04T10:26:37.789Z,3.22
2023-05-04T10:27:56.964Z,2.90
2023-05-04T10:29:23.656Z,3.30
2023-05-04T10:30:25.836Z,3.10
2023-05-04T10:31:39.851Z,2.90
2023-05-04T10:32:41.676Z,3.00
2023-05-04T10:33:43.647Z,3.30
2023-05-04T10:34:45.327Z,2.97
2023-05-04T10:35:53.713Z,3.03
2023-05-04T10:36:56.247Z,3.40
2023-05-04T10:37:59.048Z,3.15
2023-05-04T10:39:01.347Z,3.13
2023-05-04T10:40:08.970Z,2.70
2023-05-04T10:41:17.796Z,2.70
2023-05-04T10:42:19.664Z,3.00
2023-05-04T10:43:24.034Z,3.20
2023-05-04T10:44:26.800Z,2.85
2023-05-04T10:45:38.343Z,3.03
2023-05-04T10:46:39.894Z,2.90
2023-05-04T10:47:41.489Z,3.10
2023-05-04T10:48:43.098Z,2.70
2023-05-04T10:49:44.556Z,2.90
2023-05-04T10:50:49.585Z,2.65
2023-05-04T10:52:10.510Z,2.40
2023-05-04T10:53:13.305Z,2.70
2023-05-04T10:54:19.383Z,2.55
2023-05-04T10:55:21.914Z,2.80
2023-05-04T10:56:24.926Z,2.70
2023-05-04T10:57:28.400Z,2.60
2023-05-04T10:58:30.121Z,3.00
2023-05-04T10:59:33.870Z,2.90
2023-05-04T11:00:45.625Z,3.10
2023-05-04T11:01:47.454Z,2.75
2023-05-04T11:02:50.288Z,2.75
2023-05-04T11:03:53.986Z,2.63
2023-05-04T11:05:08.131Z,2.55
2023-05-04T11:06:25.197Z,2.53
2023-05-04T11:07:38.169Z,2.40
2023-05-04T11:08:39.939Z,2.40
2023-05-04T11:09:42.881Z,2.55
2023-05-04T11:10:46.465Z,2.40
2023-05-04T11:11:48.611Z,2.33
2023-05-04T11:12:50.362Z,2.50
2023-05-04T11:13:52.241Z,2.38
2023-05-04T11:15:07.212Z,2.00
2023-05-04T11:16:12.361Z,2.40
2023-05-04T11:18:37.429Z,2.60
2023-05-04T11:19:52.693Z,2.17
2023-05-04T11:20:56.105Z,2.08
2023-05-04T11:21:57.946Z,2.25
2023-05-04T11:22:59.482Z,2.08
2023-05-04T11:24:01.287Z,2.45
2023-05-04T11:25:03.902Z,2.20
2023-05-04T11:26:07.401Z,2.38
2023-05-04T11:27:30.250Z,2.03
2023-05-04T11:28:38.499Z,2.13
2023-05-04T11:29:40.106Z,2.20
2023-05-04T11:30:43.823Z,2.03
2023-05-04T11:31:54.433Z,2.08
2023-05-04T11:32:57.392Z,2.35
2023-05-04T11:33:58.976Z,2.17
2023-05-04T11:35:01.323Z,1.92
2023-05-04T11:36:03.643Z,1.90
2023-05-04T11:37:06.386Z,1.80
2023-05-04T11:38:08.358Z,2.20
2023-05-04T11:39:09.959Z,1.83
2023-05-04T11:40:20.138Z,1.88
2023-05-04T11:41:26.255Z,1.95
2023-05-04T11:42:27.802Z,2.00
2023-05-04T11:43:30.876Z,2.05
2023-05-04T11:44:32.757Z,1.80
2023-05-04T11:45:36.531Z,1.90
2023-05-04T11:46:38.909Z,2.20
2023-05-04T11:47:41.333Z,2.05
2023-05-04T11:48:43.023Z,2.13
2023-05-04T11:49:45.639Z,1.90
2023-05-04T11:50:48.078Z,1.90
2023-05-04T11:51:49.927Z,1.75
2023-05-04T11:52:51.533Z,1.83
2023-05-04T11:53:53.544Z,1.70
2023-05-04T11:54:57.195Z,1.70
2023-05-04T11:56:02.660Z,1.70
2023-05-04T11:57:04.872Z,1.83
2023-05-04T11:58:11.908Z,2.00
2023-05-04T11:59:13.483Z,1.85
2023-05-04T12:00:15.377Z,1.70
2023-05-04T12:01:17.720Z,1.70
2023-05-04T12:02:20.275Z,1.80
2023-05-04T12:03:43.309Z,1.70
2023-05-04T12:04:49.201Z,1.77
2023-05-04T12:05:56.069Z,1.85
2023-05-04T12:06:59.607Z,2.00
2023-05-04T12:08:03.730Z,1.90
2023-05-04T12:09:06.575Z,2.10
2023-05-04T12:10:08.690Z,1.98
2023-05-04T12:11:14.859Z,2.10
2023-05-04T12:12:21.532Z,2.20
2023-05-04T12:13:22.978Z,1.92
2023-05-04T12:14:26.638Z,1.80
2023-05-04T12:15:32.773Z,2.13
2023-05-04T12:16:34.595Z,2.10
2023-05-04T12:17:41.257Z,2.35
2023-05-04T12:18:45.208Z,2.10
2023-05-04T12:19:48.393Z,1.95
2023-05-04T12:20:49.892Z,1.90
2023-05-04T12:21:53.451Z,2.10
2023-05-04T12:23:05.200Z,1.83
2023-05-04T12:24:07.049Z,2.10
2023-05-04T12:25:11.155Z,1.90
2023-05-04T12:26:13.668Z,1.90
2023-05-04T12:27:15.491Z,1.92
2023-05-04T12:28:19.408Z,1.88
2023-05-04T12:29:21.307Z,1.70
2023-05-04T12:30:23.051Z,2.10
2023-05-04T12:31:25.565Z,1.92
2023-05-04T12:32:27.278Z,2.10
2023-05-04T12:33:28.777Z,1.83
2023-05-04T12:34:30.354Z,1.95
2023-05-04T12:35:31.814Z,1.92
2023-05-04T12:36:34.847Z,2.05
2023-05-04T12:37:37.910Z,1.98
2023-05-04T12:38:39.496Z,1.92
2023-05-04T12:39:41.128Z,2.10
2023-05-04T12:40:43.478Z,2.13
2023-05-04T12:41:45.310Z,1.95
2023-05-04T12:42:46.802Z,2.08
2023-05-04T12:43:49.319Z,2.10
2023-05-04T12:44:50.894Z,2.07
2023-05-04T12:45:52.997Z,1.90
2023-05-04T12:46:55.446Z,1.77
2023-05-04T12:47:57.089Z,1.90
2023-05-04T12:48:58.577Z,1.65
2023-05-04T12:50:02.282Z,2.10
2023-05-04T12:51:04.939Z,1.92
2023-05-04T12:52:06.690Z,1.77
2023-05-04T12:53:08.226Z,1.60
2023-05-04T12:54:09.727Z,1.75
2023-05-04T12:55:11.366Z,2.10
2023-05-04T12:56:13.081Z,1.88
2023-05-04T12:57:14.585Z,2.00
2023-05-04T12:58:16.447Z,1.95
2023-05-04T12:59:18.034Z,1.90
2023-05-04T13:00:19.906Z,1.75
2023-05-04T13:01:22.051Z,2.00
2023-05-04T13:02:24.401Z,1.73
2023-05-04T13:03:27.099Z,1.73
2023-05-04T13:04:28.627Z,1.77
2023-05-04T13:05:30.886Z,1.98
2023-05-04T13:06:32.481Z,2.17
2023-05-04T13:07:35.207Z,1.90
2023-05-04T13:08:36.702Z,1.85
2023-05-04T13:09:38.172Z,1.88
2023-05-04T13:10:39.675Z,1.93
2023-05-04T13:11:41.159Z,2.00
2023-05-04T13:12:45.450Z,1.75
2023-05-04T13:13:47.672Z,1.95
2023-05-04T13:14:49.253Z,1.83
2023-05-04T13:15:50.859Z,2.40
2023-05-04T13:16:53.823Z,2.40
2023-05-04T13:17:55.432Z,1.70
2023-05-04T13:18:58.011Z,1.58
2023-05-04T13:19:59.930Z,1.70
2023-05-04T13:21:01.422Z,1.77
2023-05-04T13:22:03.447Z,1.80
2023-05-04T13:23:05.232Z,1.92
2023-05-04T13:24:06.976Z,1.80
2023-05-04T13:25:09.018Z,1.90
2023-05-04T13:26:10.714Z,2.05
2023-05-04T13:27:12.264Z,1.67
2023-05-04T13:28:13.709Z,1.60
2023-05-04T13:29:17.755Z,2.00
2023-05-04T13:30:20.530Z,1.70
2023-05-04T13:31:22.103Z,1.85
2023-05-04T13:32:23.931Z,2.03
2023-05-04T13:33:30.099Z,1.80
2023-05-04T13:34:32.754Z,1.90
2023-05-04T13:35:34.567Z,1.90
2023-05-04T13:36:36.070Z,1.80
2023-05-04T13:37:38.158Z,1.87
2023-05-04T13:38:39.605Z,1.77
2023-05-04T13:39:41.712Z,1.65
2023-05-04T13:40:44.301Z,1.70
2023-05-04T13:41:45.808Z,1.67
2023-05-04T13:42:47.838Z,1.70
2023-05-04T13:43:49.326Z,1.58
2023-05-04T13:44:51.059Z,1.90
2023-05-04T13:45:52.652Z,1.88
2023-05-04T13:46:54.168Z,1.90
2023-05-04T13:47:55.937Z,1.80
2023-05-04T13:48:57.488Z,1.87
2023-05-04T13:49:58.988Z,2.17
2023-05-04T13:51:03.500Z,2.05
2023-05-04T13:52:05.519Z,1.90
2023-05-04T13:53:07.037Z,2.03
2023-05-04T13:54:08.703Z,2.15
2023-05-04T13:55:10.418Z,2.17
2023-05-04T13:56:11.979Z,1.98
2023-05-04T13:57:13.480Z,2.20
2023-05-04T13:58:15.246Z,2.13
2023-05-04T13:59:16.880Z,2.08
2023-05-04T14:00:19.018Z,2.20